Time;durP1;ratioP1;P1;durP2;ratioP2;P2;SDS_P1;SDS_P2;PMS_P1;PMS_P2;Temp;Humidity;BMP_temperature;BMP_pressure;BME280_temperature;BME280_humidity;BME280_pressure;Samples;Min_cycle;Max_cycle;Signal;HPM_P1;HPM_P2
2021/11/04 00:00:28;;;;;;;;;;;6.00;99.90;;;;;;8360390;28;19911;-63
2021/11/04 00:04:28;;;;;;;;;;;6.00;99.90;;;;;;8359948;28;19909;-62
2021/11/04 00:08:29;;;;;;;;;;;6.00;99.90;;;;;;8341901;28;19909;-62
2021/11/04 00:12:29;;;;;;;;;;;6.10;99.90;;;;;;8360184;28;19905;-62
2021/11/04 00:16:30;;;;;;;;;;;6.10;99.90;;;;;;8365883;28;19912;-62
2021/11/04 00:20:30;;;;;;;;;;;6.10;99.90;;;;;;8365956;28;20292;-61
2021/11/04 00:24:31;;;;;;;;;;;6.00;99.90;;;;;;8366041;28;19913;-63
2021/11/04 00:28:31;;;;;;;;;;;6.10;99.90;;;;;;8365722;28;19912;-62
2021/11/04 00:32:32;;;;;;;;;;;6.10;99.90;;;;;;8365909;28;20265;-62
2021/11/04 00:36:33;;;;;;;;;;;6.00;99.90;;;;;;8365781;28;19918;-62
2021/11/04 00:40:33;;;;;;;;;;;6.00;99.90;;;;;;8365640;28;20400;-62
2021/11/04 00:44:34;;;;;;;;;;;6.00;99.90;;;;;;8365771;28;19911;-62
2021/11/04 00:48:34;;;;;;;;;;;6.10;99.90;;;;;;8365602;28;19915;-62
2021/11/04 00:52:35;;;;;;;;;;;6.10;99.90;;;;;;8365483;28;20289;-62
2021/11/04 00:56:35;;;;;;;;;;;6.00;99.90;;;;;;8365240;28;20352;-62
2021/11/04 01:00:36;;;;;;;;;;;6.00;99.90;;;;;;8364961;28;19926;-62
2021/11/04 01:04:36;;;;;;;;;;;6.00;99.90;;;;;;8347059;28;19908;-62
2021/11/04 01:08:37;;;;;;;;;;;6.00;99.90;;;;;;8364608;28;19990;-62
2021/11/04 01:12:37;;;;;;;;;;;6.00;99.90;;;;;;8364962;28;19905;-62
2021/11/04 01:16:38;;;;;;;;;;;6.10;99.90;;;;;;8346672;28;19948;-61
2021/11/04 01:20:39;;;;;;;;;;;6.10;99.90;;;;;;8364318;28;19912;-61
2021/11/04 01:24:39;;;;;;;;;;;6.00;99.90;;;;;;8363837;28;20383;-62
2021/11/04 01:28:40;;;;;;;;;;;6.00;99.90;;;;;;8363576;28;20011;-62
2021/11/04 01:32:40;;;;;;;;;;;6.00;99.90;;;;;;8346698;28;19905;-62
2021/11/04 01:36:41;;;;;;;;;;;6.00;99.90;;;;;;8363575;28;19991;-62
2021/11/04 01:40:41;;;;;;;;;;;6.00;99.90;;;;;;8363875;28;19952;-62
2021/11/04 01:44:42;;;;;;;;;;;6.00;99.90;;;;;;8364011;28;20003;-62
2021/11/04 01:48:42;;;;;;;;;;;6.00;99.90;;;;;;8363421;28;19916;-62
2021/11/04 01:52:43;;;;;;;;;;;6.00;99.90;;;;;;8363777;28;20144;-62
2021/11/04 01:56:44;;;;;;;;;;;6.10;99.90;;;;;;8363342;28;19905;-61
2021/11/04 02:00:44;;;;;;;;;;;6.00;99.90;;;;;;8362856;28;19905;-62
2021/11/04 02:05:05;;;;;;;;;;;6.00;99.90;;;;;;8362982;28;19959;-62
2021/11/04 02:09:06;;;;;;;;;;;6.00;99.90;;;;;;8362369;28;19915;-62
2021/11/04 02:13:17;;;;;;;;;;;6.00;99.90;;;;;;8363138;28;19995;-61
2021/11/04 02:17:18;;;;;;;;;;;6.00;99.90;;;;;;8362571;28;19905;-62
2021/11/04 02:21:24;;;;;;;;;;;6.00;99.90;;;;;;8362547;28;20365;-62
2021/11/04 02:25:26;;;;;;;;;;;6.10;99.90;;;;;;8362439;28;19915;-62
2021/11/04 02:29:26;;;;;;;;;;;6.00;99.90;;;;;;8352828;28;19923;-62
2021/11/04 02:33:27;;;;;;;;;;;6.00;99.90;;;;;;8362451;28;19988;-61
2021/11/04 02:37:30;;;;;;;;;;;5.90;99.90;;;;;;8361999;28;19909;-62
2021/11/04 02:41:31;;;;;;;;;;;5.90;99.90;;;;;;8361916;28;20369;-62
2021/11/04 02:45:32;;;;;;;;;;;5.90;99.90;;;;;;8360496;28;19909;-61
2021/11/04 02:49:35;;;;;;;;;;;6.00;99.90;;;;;;8361236;28;19936;-61
2021/11/04 02:53:35;;;;;;;;;;;5.80;99.90;;;;;;8361480;28;19908;-62
2021/11/04 02:57:48;;;;;;;;;;;5.70;99.90;;;;;;8361750;28;19904;-62
2021/11/04 03:01:50;;;;;;;;;;;5.90;99.90;;;;;;8361169;28;19916;-62
2021/11/04 03:05:51;;;;;;;;;;;5.80;99.90;;;;;;8361393;28;19908;-62
2021/11/04 03:09:51;;;;;;;;;;;5.80;99.90;;;;;;8360650;28;19954;-62
2021/11/04 03:13:52;;;;;;;;;;;5.90;99.90;;;;;;8342955;28;19908;-62
2021/11/04 03:17:53;;;;;;;;;;;5.90;99.90;;;;;;8360926;28;20357;-61
2021/11/04 03:21:55;;;;;;;;;;;5.90;99.90;;;;;;8360307;28;19962;-62
2021/11/04 03:25:56;;;;;;;;;;;5.60;99.90;;;;;;8360789;28;20301;-62
2021/11/04 03:29:58;;;;;;;;;;;5.50;99.90;;;;;;8394504;22;19970;-67
2021/11/04 03:33:59;;;;;;;;;;;5.40;99.90;;;;;;8393741;28;20360;-68
2021/11/04 03:38:00;;;;;;;;;;;5.30;99.90;;;;;;8395724;28;20051;-67
2021/11/04 03:42:01;;;;;;;;;;;5.30;99.90;;;;;;8394564;28;19913;-66
2021/11/04 03:46:02;;;;;;;;;;;5.20;99.90;;;;;;8393777;28;20561;-66
2021/11/04 03:50:04;;;;;;;;;;;5.20;99.90;;;;;;8393611;28;19908;-66
2021/11/04 03:54:04;;;;;;;;;;;5.20;99.90;;;;;;8404621;28;19915;-66
2021/11/04 03:58:05;;;;;;;;;;;5.10;99.90;;;;;;8406474;28;19904;-67
2021/11/04 04:02:07;;;;;;;;;;;5.20;99.90;;;;;;8406065;28;19912;-67
2021/11/04 04:06:07;;;;;;;;;;;5.20;99.90;;;;;;8406403;28;19904;-66
2021/11/04 04:10:08;;;;;;;;;;;5.10;99.90;;;;;;8405793;28;20330;-66
2021/11/04 04:14:09;;;;;;;;;;;5.10;99.90;;;;;;8406427;28;19904;-67
2021/11/04 04:18:09;;;;;;;;;;;5.00;99.90;;;;;;8387532;28;19911;-66
2021/11/04 04:22:10;;;;;;;;;;;5.00;99.90;;;;;;8405512;28;20307;-67
2021/11/04 04:26:10;;;;;;;;;;;4.90;99.90;;;;;;8404338;28;19914;-67
2021/11/04 04:30:11;;;;;;;;;;;4.80;99.90;;;;;;8403838;28;19912;-67
2021/11/04 04:34:11;;;;;;;;;;;4.60;99.90;;;;;;8402849;28;19904;-67
2021/11/04 04:38:12;;;;;;;;;;;4.50;99.90;;;;;;8401676;28;19912;-66
2021/11/04 04:42:12;;;;;;;;;;;4.50;99.90;;;;;;8398993;28;19916;-66
2021/11/04 04:46:13;;;;;;;;;;;4.50;99.90;;;;;;8401388;28;19940;-67
2021/11/04 04:50:13;;;;;;;;;;;4.40;99.90;;;;;;8394298;28;19979;-67
2021/11/04 04:54:14;;;;;;;;;;;4.30;99.90;;;;;;8386274;28;19919;-66
2021/11/04 04:58:14;;;;;;;;;;;4.40;99.90;;;;;;8374396;28;20003;-66
2021/11/04 05:02:14;;;;;;;;;;;4.40;99.90;;;;;;8396624;28;19930;-66
2021/11/04 05:06:15;;;;;;;;;;;4.40;99.90;;;;;;8399191;28;19908;-66
2021/11/04 05:10:15;;;;;;;;;;;4.40;99.90;;;;;;8393296;28;20269;-68
2021/11/04 05:14:16;;;;;;;;;;;4.40;99.90;;;;;;8399810;28;19912;-66
2021/11/04 05:18:16;;;;;;;;;;;4.40;99.90;;;;;;8399347;28;19908;-66
2021/11/04 05:22:17;;;;;;;;;;;4.40;99.90;;;;;;8400197;28;19908;-65
2021/11/04 05:26:17;;;;;;;;;;;4.50;99.90;;;;;;8398773;28;19908;-67
2021/11/04 05:30:18;;;;;;;;;;;4.60;99.90;;;;;;8397779;28;20399;-66
2021/11/04 05:34:19;;;;;;;;;;;4.50;99.90;;;;;;8398983;28;20003;-66
2021/11/04 05:38:19;;;;;;;;;;;4.50;99.90;;;;;;8394943;28;20385;-66
2021/11/04 05:42:20;;;;;;;;;;;4.60;99.90;;;;;;8389446;28;20003;-66
2021/11/04 05:46:20;;;;;;;;;;;4.50;99.90;;;;;;8380361;28;19905;-66
2021/11/04 05:50:21;;;;;;;;;;;4.60;99.90;;;;;;8391373;28;19909;-68
2021/11/04 05:54:22;;;;;;;;;;;4.70;99.90;;;;;;8369336;28;19908;-66
2021/11/04 05:58:22;;;;;;;;;;;4.70;99.90;;;;;;8371545;28;19916;-66
2021/11/04 06:02:23;;;;;;;;;;;4.70;99.90;;;;;;8428582;28;19918;-67
2021/11/04 06:06:23;;;;;;;;;;;4.70;99.90;;;;;;8411488;28;19907;-66
2021/11/04 06:10:24;;;;;;;;;;;4.70;99.90;;;;;;8427949;28;19904;-68
2021/11/04 06:14:25;;;;;;;;;;;4.70;99.90;;;;;;8428773;28;19904;-67
2021/11/04 06:18:25;;;;;;;;;;;4.60;99.90;;;;;;8429936;28;19925;-66
2021/11/04 06:22:26;;;;;;;;;;;4.60;99.90;;;;;;8431631;28;19912;-67
2021/11/04 06:26:26;;;;;;;;;;;4.60;99.90;;;;;;8393417;28;19904;-66
2021/11/04 06:30:26;;;;;;;;;;;4.60;99.90;;;;;;8397523;28;19919;-67
2021/11/04 06:34:27;;;;;;;;;;;4.50;99.90;;;;;;8396372;28;19908;-67
2021/11/04 06:38:27;;;;;;;;;;;4.50;99.90;;;;;;8395812;28;19962;-66
2021/11/04 06:42:28;;;;;;;;;;;4.70;99.90;;;;;;8397300;28;19995;-67
2021/11/04 06:46:28;;;;;;;;;;;4.70;99.90;;;;;;8397066;28;19904;-67
2021/11/04 06:50:31;;;;;;;;;;;4.70;99.90;;;;;;8397271;28;19908;-66
2021/11/04 06:54:32;;;;;;;;;;;4.80;99.90;;;;;;8397035;28;20369;-66
2021/11/04 06:58:33;;;;;;;;;;;4.80;99.90;;;;;;8396264;28;19959;-67
2021/11/04 07:02:35;;;;;;;;;;;4.80;99.90;;;;;;8396615;28;20007;-66
2021/11/04 07:06:43;;;;;;;;;;;4.70;99.90;;;;;;8397336;28;19927;-66
2021/11/04 07:10:44;;;;;;;;;;;4.70;99.90;;;;;;8379029;28;20008;-67
2021/11/04 07:14:46;;;;;;;;;;;4.80;99.90;;;;;;8395748;28;20375;-68
2021/11/04 07:18:46;;;;;;;;;;;4.80;99.90;;;;;;8396147;28;19909;-66
2021/11/04 07:22:49;;;;;;;;;;;4.80;99.90;;;;;;8395704;28;19951;-66
2021/11/04 07:26:52;;;;;;;;;;;4.80;99.90;;;;;;8395098;28;20014;-66
2021/11/04 07:30:54;;;;;;;;;;;4.80;99.90;;;;;;8395142;28;19908;-67
2021/11/04 07:34:54;;;;;;;;;;;4.90;99.90;;;;;;8393093;28;19912;-67
2021/11/04 07:38:56;;;;;;;;;;;5.00;99.90;;;;;;8413312;28;19965;-67
2021/11/04 07:42:57;;;;;;;;;;;5.10;99.90;;;;;;8428725;28;19999;-67
2021/11/04 07:46:58;;;;;;;;;;;5.20;99.90;;;;;;8428302;28;19908;-67
2021/11/04 07:50:58;;;;;;;;;;;5.20;99.90;;;;;;8428879;28;19926;-68
2021/11/04 07:54:59;;;;;;;;;;;5.20;99.90;;;;;;8429074;28;19911;-67
2021/11/04 07:59:00;;;;;;;;;;;5.20;99.90;;;;;;8405236;28;20375;-66
2021/11/04 08:03:00;;;;;;;;;;;5.30;99.90;;;;;;8395003;28;19923;-68
2021/11/04 08:07:01;;;;;;;;;;;5.30;99.90;;;;;;8394383;28;19908;-67
2021/11/04 08:11:02;;;;;;;;;;;5.40;99.90;;;;;;8394632;28;20327;-66
2021/11/04 08:15:03;;;;;;;;;;;5.40;99.90;;;;;;8394495;28;19948;-66
2021/11/04 08:19:04;;;;;;;;;;;5.40;99.90;;;;;;8393634;28;19908;-67
2021/11/04 08:23:08;;;;;;;;;;;5.50;99.90;;;;;;8394389;28;19908;-66
2021/11/04 08:27:09;;;;;;;;;;;5.50;99.90;;;;;;8376034;28;19908;-67
2021/11/04 08:31:09;;;;;;;;;;;5.50;99.90;;;;;;8387164;28;19909;-69
2021/11/04 08:35:10;;;;;;;;;;;5.50;99.90;;;;;;8380147;28;19924;-67
2021/11/04 08:39:12;;;;;;;;;;;5.50;99.90;;;;;;8391372;28;19912;-67
2021/11/04 08:43:13;;;;;;;;;;;5.50;99.90;;;;;;8386327;28;20304;-67
2021/11/04 08:47:13;;;;;;;;;;;5.60;99.90;;;;;;8366772;28;19913;-67
2021/11/04 08:51:14;;;;;;;;;;;5.70;99.90;;;;;;8365070;28;19909;-69
2021/11/04 08:55:14;;;;;;;;;;;5.80;99.90;;;;;;8366811;28;19905;-67
2021/11/04 08:59:15;;;;;;;;;;;5.70;99.90;;;;;;8389930;28;20373;-67
2021/11/04 09:03:16;;;;;;;;;;;5.70;99.90;;;;;;8399226;28;20418;-67
2021/11/04 09:07:18;;;;;;;;;;;5.70;99.90;;;;;;8398920;28;20316;-67
2021/11/04 09:11:18;;;;;;;;;;;5.70;99.90;;;;;;8398852;28;19977;-67
2021/11/04 09:15:18;;;;;;;;;;;5.60;99.90;;;;;;8398355;28;19904;-68
2021/11/04 09:19:19;;;;;;;;;;;5.70;99.90;;;;;;8398287;28;19939;-67
2021/11/04 09:23:19;;;;;;;;;;;5.80;99.90;;;;;;8398103;28;19908;-67
2021/11/04 09:27:20;;;;;;;;;;;5.80;99.90;;;;;;8419556;22;20621;-64
2021/11/04 09:31:21;;;;;;;;;;;5.70;99.90;;;;;;8330246;28;20376;-64
2021/11/04 09:35:22;;;;;;;;;;;5.90;99.90;;;;;;8330875;28;19912;-64
2021/11/04 09:39:22;;;;;;;;;;;6.00;99.90;;;;;;8330837;28;19905;-64
2021/11/04 09:43:23;;;;;;;;;;;6.00;99.90;;;;;;8315856;28;19955;-64
2021/11/04 09:47:25;;;;;;;;;;;6.10;99.90;;;;;;8332663;28;19913;-64
2021/11/04 09:51:26;;;;;;;;;;;6.30;99.90;;;;;;8307239;28;20266;-65
2021/11/04 09:55:27;;;;;;;;;;;6.20;99.90;;;;;;8297394;28;20007;-64
2021/11/04 09:59:27;;;;;;;;;;;6.20;99.90;;;;;;8322990;28;19987;-63
2021/11/04 10:03:32;;;;;;;;;;;6.10;99.90;;;;;;8330053;28;19909;-64
2021/11/04 10:07:44;;;;;;;;;;;6.00;99.90;;;;;;8330121;28;19950;-64
2021/11/04 10:11:46;;;;;;;;;;;6.00;99.90;;;;;;8329229;28;19951;-64
2021/11/04 10:15:54;;;;;;;;;;;6.00;99.90;;;;;;8329782;28;20308;-64
2021/11/04 10:19:54;;;;;;;;;;;5.90;99.90;;;;;;8317667;28;20349;-64
2021/11/04 10:23:55;;;;;;;;;;;6.00;99.90;;;;;;8305456;28;19921;-64
2021/11/04 10:27:56;;;;;;;;;;;6.00;99.90;;;;;;8291710;28;20011;-64
2021/11/04 10:31:57;;;;;;;;;;;5.90;99.90;;;;;;8329238;28;20643;-64
2021/11/04 10:35:59;;;;;;;;;;;5.80;99.90;;;;;;8329170;28;19940;-64
2021/11/04 10:40:04;;;;;;;;;;;5.90;99.90;;;;;;8328869;28;19909;-64
2021/11/04 10:44:06;;;;;;;;;;;5.90;99.90;;;;;;8311138;28;19948;-64
2021/11/04 10:48:20;;;;;;;;;;;5.90;99.90;;;;;;8310403;28;20348;-64
2021/11/04 10:52:27;;;;;;;;;;;5.80;99.90;;;;;;8310983;28;20347;-64
2021/11/04 10:56:28;;;;;;;;;;;5.80;99.90;;;;;;8327735;28;20313;-64
2021/11/04 11:00:28;;;;;;;;;;;5.80;99.90;;;;;;8309500;28;19912;-64
2021/11/04 11:04:32;;;;;;;;;;;5.80;99.90;;;;;;8328311;28;20288;-63
2021/11/04 11:08:33;;;;;;;;;;;5.80;99.90;;;;;;8327854;28;19905;-64
2021/11/04 11:12:33;;;;;;;;;;;6.00;99.90;;;;;;8310628;28;19905;-63
2021/11/04 11:16:38;;;;;;;;;;;6.20;99.90;;;;;;8328284;28;19905;-64
2021/11/04 11:20:41;;;;;;;;;;;6.20;99.90;;;;;;8327668;28;19905;-65
2021/11/04 11:24:43;;;;;;;;;;;6.20;99.90;;;;;;8326946;28;19915;-64
2021/11/04 11:28:44;;;;;;;;;;;6.30;99.90;;;;;;8327287;28;19920;-64
2021/11/04 11:32:48;;;;;;;;;;;6.40;99.90;;;;;;8309997;28;19913;-63
2021/11/04 11:37:03;;;;;;;;;;;6.40;99.90;;;;;;8327676;28;20305;-65
2021/11/04 11:41:03;;;;;;;;;;;6.30;99.90;;;;;;8326204;28;19909;-64
2021/11/04 11:45:12;;;;;;;;;;;6.30;99.90;;;;;;8302824;28;20042;-64
2021/11/04 11:49:12;;;;;;;;;;;6.20;99.90;;;;;;8293554;28;19913;-64
2021/11/04 11:53:25;;;;;;;;;;;6.20;99.90;;;;;;8327400;28;19974;-64
2021/11/04 11:57:26;;;;;;;;;;;6.20;99.90;;;;;;8327125;28;19905;-65
2021/11/04 12:01:44;;;;;;;;;;;6.10;99.90;;;;;;8323583;28;20409;-64
2021/11/04 12:05:44;;;;;;;;;;;6.00;99.90;;;;;;8326997;28;20438;-64
2021/11/04 12:09:46;;;;;;;;;;;6.20;99.90;;;;;;8328273;28;19909;-64
2021/11/04 12:13:46;;;;;;;;;;;6.30;99.90;;;;;;8318810;28;20377;-65
2021/11/04 12:18:10;;;;;;;;;;;6.40;99.90;;;;;;8306390;28;19967;-64
2021/11/04 12:22:12;;;;;;;;;;;6.30;99.90;;;;;;8299102;28;19917;-64
2021/11/04 12:26:14;;;;;;;;;;;6.40;99.90;;;;;;8333150;28;20515;-65
2021/11/04 12:30:26;;;;;;;;;;;6.40;99.90;;;;;;8330824;28;19967;-64
2021/11/04 12:34:26;;;;;;;;;;;6.30;99.90;;;;;;8324862;28;19919;-64
2021/11/04 12:38:40;;;;;;;;;;;6.20;99.90;;;;;;8332736;28;20360;-65
2021/11/04 12:42:44;;;;;;;;;;;6.30;99.90;;;;;;8311168;28;19948;-64
2021/11/04 12:46:47;;;;;;;;;;;6.30;99.90;;;;;;8282373;28;19913;-64
2021/11/04 12:50:58;;;;;;;;;;;6.40;99.90;;;;;;8299168;28;20310;-63
2021/11/04 12:54:58;;;;;;;;;;;6.60;99.90;;;;;;8298762;28;19948;-64
2021/11/04 12:58:58;;;;;;;;;;;6.80;99.90;;;;;;8320842;28;19905;-64
2021/11/04 13:02:59;;;;;;;;;;;7.00;99.90;;;;;;8331346;28;19920;-64
2021/11/04 13:07:00;;;;;;;;;;;7.40;99.90;;;;;;8314451;28;20008;-64
2021/11/04 13:11:10;;;;;;;;;;;7.40;99.90;;;;;;8331455;28;19909;-64
2021/11/04 13:15:12;;;;;;;;;;;7.20;99.90;;;;;;8331154;28;19909;-64
2021/11/04 13:19:20;;;;;;;;;;;7.10;99.90;;;;;;8331270;28;19951;-64
2021/11/04 13:23:25;;;;;;;;;;;7.00;99.90;;;;;;8298834;28;20293;-64
2021/11/04 13:27:26;;;;;;;;;;;6.80;99.90;;;;;;8306893;28;19944;-64
2021/11/04 13:31:31;;;;;;;;;;;6.80;99.90;;;;;;8312191;28;19967;-64
2021/11/04 13:35:33;;;;;;;;;;;7.00;99.90;;;;;;8324391;28;20331;-64
2021/11/04 13:39:34;;;;;;;;;;;7.00;99.90;;;;;;8305573;28;19916;-64
2021/11/04 13:43:39;;;;;;;;;;;6.90;99.90;;;;;;8305890;28;20308;-65
2021/11/04 13:47:41;;;;;;;;;;;7.00;99.90;;;;;;8297211;28;19906;-64
2021/11/04 13:51:42;;;;;;;;;;;7.10;99.90;;;;;;8306190;28;19913;-64
2021/11/04 13:55:43;;;;;;;;;;;7.70;99.90;;;;;;8307216;28;19919;-65
2021/11/04 13:59:51;;;;;;;;;;;8.40;99.90;;;;;;8319537;28;19914;-64
2021/11/04 14:04:05;;;;;;;;;;;8.20;99.90;;;;;;8331823;28;19913;-64
2021/11/04 14:08:05;;;;;;;;;;;7.80;99.90;;;;;;8329699;28;19909;-64
2021/11/04 14:12:12;;;;;;;;;;;7.50;99.90;;;;;;8323271;28;20042;-62
2021/11/04 14:16:23;;;;;;;;;;;7.30;99.90;;;;;;8307333;28;19971;-63
2021/11/04 14:20:25;;;;;;;;;;;7.20;99.90;;;;;;8309416;28;19905;-63
2021/11/04 14:24:26;;;;;;;;;;;7.20;99.90;;;;;;8299772;28;19917;-63
2021/11/04 14:28:26;;;;;;;;;;;7.10;99.90;;;;;;8325311;28;19995;-62
2021/11/04 14:32:26;;;;;;;;;;;7.00;99.90;;;;;;8292507;28;19912;-63
2021/11/04 14:36:28;;;;;;;;;;;7.00;99.90;;;;;;8304979;28;19909;-62
2021/11/04 14:40:29;;;;;;;;;;;6.90;99.90;;;;;;8326505;28;20392;-63
2021/11/04 14:44:29;;;;;;;;;;;6.90;99.90;;;;;;8320062;28;19913;-63
2021/11/04 14:48:30;;;;;;;;;;;7.10;99.90;;;;;;8325972;28;19916;-63
2021/11/04 14:52:30;;;;;;;;;;;6.90;99.90;;;;;;8325686;28;19916;-63
2021/11/04 14:56:31;;;;;;;;;;;7.10;99.90;;;;;;8325471;28;20285;-62
2021/11/04 15:00:31;;;;;;;;;;;7.00;99.90;;;;;;8326600;28;19951;-62
2021/11/04 15:04:32;;;;;;;;;;;6.90;99.90;;;;;;8324168;28;19913;-63
2021/11/04 15:08:33;;;;;;;;;;;6.80;99.90;;;;;;8325689;28;19971;-62
2021/11/04 15:12:33;;;;;;;;;;;6.70;99.90;;;;;;8326002;28;19927;-63
2021/11/04 15:16:34;;;;;;;;;;;6.60;99.90;;;;;;8319976;28;19913;-62
2021/11/04 15:20:35;;;;;;;;;;;6.50;99.90;;;;;;8325567;28;19955;-63
2021/11/04 15:24:36;;;;;;;;;;;6.60;99.90;;;;;;8323109;28;19959;-63
2021/11/04 15:28:42;;;;;;;;;;;6.60;99.90;;;;;;8341182;22;20387;-63
2021/11/04 15:32:42;;;;;;;;;;;6.50;99.90;;;;;;8388971;28;19908;-63
2021/11/04 15:36:43;;;;;;;;;;;6.50;99.90;;;;;;8390239;28;19912;-63
2021/11/04 15:40:43;;;;;;;;;;;6.40;99.90;;;;;;8414297;28;20330;-64
2021/11/04 15:44:44;;;;;;;;;;;6.30;99.90;;;;;;8421844;28;19915;-63
2021/11/04 15:48:44;;;;;;;;;;;6.20;99.90;;;;;;8400266;28;19912;-62
2021/11/04 15:52:45;;;;;;;;;;;6.00;99.90;;;;;;8394928;28;19909;-62
2021/11/04 15:56:45;;;;;;;;;;;5.90;99.90;;;;;;8416627;28;19961;-62
2021/11/04 16:00:46;;;;;;;;;;;5.90;99.90;;;;;;8417720;28;19908;-63
2021/11/04 16:04:46;;;;;;;;;;;5.90;99.90;;;;;;8425547;28;19908;-63
2021/11/04 16:08:47;;;;;;;;;;;5.90;99.90;;;;;;8394620;28;19908;-63
2021/11/04 16:12:47;;;;;;;;;;;5.90;99.90;;;;;;8407830;28;19911;-63
2021/11/04 16:16:48;;;;;;;;;;;5.80;99.90;;;;;;8424563;28;19908;-62
2021/11/04 16:20:49;;;;;;;;;;;5.80;99.90;;;;;;8425228;28;19982;-63
2021/11/04 16:24:49;;;;;;;;;;;5.90;99.90;;;;;;8424576;28;19916;-63
2021/11/04 16:28:50;;;;;;;;;;;5.80;99.90;;;;;;8424970;28;19912;-62
2021/11/04 16:32:50;;;;;;;;;;;5.90;99.90;;;;;;8425423;28;19911;-63
2021/11/04 16:36:57;;;;;;;;;;;5.90;99.90;;;;;;8423244;28;19908;-63
2021/11/04 16:40:57;;;;;;;;;;;6.00;99.90;;;;;;8424047;28;19915;-63
2021/11/04 16:44:58;;;;;;;;;;;5.90;99.90;;;;;;8389254;28;20725;-63
2021/11/04 16:48:58;;;;;;;;;;;5.90;99.90;;;;;;8413380;28;19912;-63
2021/11/04 16:52:59;;;;;;;;;;;5.90;99.90;;;;;;8419350;28;19998;-63
2021/11/04 16:56:59;;;;;;;;;;;5.80;99.90;;;;;;8425526;28;19912;-63
2021/11/04 17:01:00;;;;;;;;;;;5.60;99.90;;;;;;8429727;28;19920;-63
2021/11/04 17:05:00;;;;;;;;;;;5.60;99.90;;;;;;8413660;28;19920;-63
2021/11/04 17:09:01;;;;;;;;;;;5.60;99.90;;;;;;8431330;28;19904;-63
2021/11/04 17:13:02;;;;;;;;;;;5.60;99.90;;;;;;8428642;28;20373;-63
2021/11/04 17:17:02;;;;;;;;;;;5.50;99.90;;;;;;8430478;28;19915;-63
2021/11/04 17:21:03;;;;;;;;;;;5.50;99.90;;;;;;8430659;28;19911;-62
2021/11/04 17:25:06;;;;;;;;;;;5.40;99.90;;;;;;8421590;28;19965;-64
2021/11/04 17:29:06;;;;;;;;;;;5.30;99.90;;;;;;8418766;28;19987;-63
2021/11/04 17:33:07;;;;;;;;;;;5.20;99.90;;;;;;8427486;28;19908;-63
2021/11/04 17:37:07;;;;;;;;;;;5.10;99.90;;;;;;8428341;28;19916;-62
2021/11/04 17:41:08;;;;;;;;;;;5.10;99.90;;;;;;8426310;28;19943;-64
2021/11/04 17:45:08;;;;;;;;;;;5.00;99.90;;;;;;8401989;28;19980;-62
2021/11/04 17:49:09;;;;;;;;;;;5.00;99.90;;;;;;8404909;28;19923;-63
2021/11/04 17:53:10;;;;;;;;;;;4.90;99.90;;;;;;8407069;28;20445;-61
2021/11/04 17:57:12;;;;;;;;;;;4.80;99.90;;;;;;8402833;28;19924;-61
2021/11/04 18:01:13;;;;;;;;;;;4.80;99.90;;;;;;8396118;28;19923;-62
2021/11/04 18:05:15;;;;;;;;;;;4.80;99.90;;;;;;8393108;28;19919;-64
2021/11/04 18:09:16;;;;;;;;;;;4.70;99.90;;;;;;8416705;28;19920;-63
2021/11/04 18:13:17;;;;;;;;;;;4.70;99.90;;;;;;8424601;28;20354;-64
2021/11/04 18:17:17;;;;;;;;;;;4.60;99.90;;;;;;8425234;28;19915;-64
2021/11/04 18:21:18;;;;;;;;;;;4.60;99.90;;;;;;8425655;28;19990;-64
2021/11/04 18:25:18;;;;;;;;;;;4.60;99.90;;;;;;8403293;28;19911;-64
2021/11/04 18:29:19;;;;;;;;;;;4.60;99.90;;;;;;8418335;28;19912;-64
2021/11/04 18:33:20;;;;;;;;;;;4.50;99.90;;;;;;8424883;28;19912;-64
2021/11/04 18:37:21;;;;;;;;;;;4.50;99.90;;;;;;8424181;28;19943;-64
2021/11/04 18:41:22;;;;;;;;;;;4.40;99.90;;;;;;8400916;28;19915;-65
2021/11/04 18:45:23;;;;;;;;;;;4.40;99.90;;;;;;8420175;28;19916;-64
2021/11/04 18:49:23;;;;;;;;;;;4.30;99.90;;;;;;8421937;28;19919;-64
2021/11/04 18:53:27;;;;;;;;;;;4.30;99.90;;;;;;8419422;28;20305;-64
2021/11/04 18:57:27;;;;;;;;;;;4.10;99.90;;;;;;8415886;28;20423;-64
2021/11/04 19:01:28;;;;;;;;;;;4.20;99.90;;;;;;8422215;28;19918;-64
2021/11/04 19:05:28;;;;;;;;;;;4.20;99.90;;;;;;8406169;28;20391;-65
2021/11/04 19:09:29;;;;;;;;;;;4.20;99.90;;;;;;8424381;28;19926;-64
2021/11/04 19:13:30;;;;;;;;;;;4.20;99.90;;;;;;8425037;28;20023;-64
2021/11/04 19:17:30;;;;;;;;;;;4.20;99.90;;;;;;8424579;28;19912;-64
2021/11/04 19:21:31;;;;;;;;;;;4.10;99.90;;;;;;8420102;28;19912;-64
2021/11/04 19:25:31;;;;;;;;;;;4.20;99.90;;;;;;8423261;28;19915;-64
2021/11/04 19:29:32;;;;;;;;;;;4.10;99.90;;;;;;8397033;28;19912;-64
2021/11/04 19:33:32;;;;;;;;;;;4.20;99.90;;;;;;8422479;28;19911;-64
2021/11/04 19:37:33;;;;;;;;;;;4.10;99.90;;;;;;8400335;28;19912;-64
2021/11/04 19:41:34;;;;;;;;;;;4.20;99.90;;;;;;8393080;28;19929;-65
2021/11/04 19:45:34;;;;;;;;;;;4.40;99.90;;;;;;8402315;28;19946;-64
2021/11/04 19:49:37;;;;;;;;;;;4.40;99.90;;;;;;8397316;28;19915;-64
2021/11/04 19:53:38;;;;;;;;;;;4.40;99.90;;;;;;8397356;28;19916;-64
2021/11/04 19:57:39;;;;;;;;;;;4.40;99.90;;;;;;8405844;28;19908;-64
2021/11/04 20:01:40;;;;;;;;;;;4.50;99.90;;;;;;8412450;28;20445;-71
2021/11/04 20:05:41;;;;;;;;;;;4.50;99.90;;;;;;8419079;28;19912;-69
2021/11/04 20:09:41;;;;;;;;;;;4.70;99.90;;;;;;8421028;28;19912;-69
2021/11/04 20:13:42;;;;;;;;;;;4.80;99.90;;;;;;8421918;28;19915;-73
2021/11/04 20:17:44;;;;;;;;;;;4.80;99.90;;;;;;8421544;28;19919;-69
2021/11/04 20:21:48;;;;;;;;;;;4.90;99.90;;;;;;8421568;28;19908;-64
2021/11/04 20:25:48;;;;;;;;;;;4.90;99.90;;;;;;8404259;28;20292;-65
2021/11/04 20:29:49;;;;;;;;;;;4.90;99.90;;;;;;8403427;28;19923;-65
2021/11/04 20:33:50;;;;;;;;;;;4.90;99.90;;;;;;8426645;28;19977;-65
2021/11/04 20:37:50;;;;;;;;;;;4.90;99.90;;;;;;8426084;28;19973;-64
2021/11/04 20:41:51;;;;;;;;;;;5.00;99.90;;;;;;8425966;28;19908;-64
2021/11/04 20:45:52;;;;;;;;;;;5.00;99.90;;;;;;8428899;28;19915;-64
2021/11/04 20:49:53;;;;;;;;;;;4.90;99.90;;;;;;8428433;28;20424;-65
2021/11/04 20:53:53;;;;;;;;;;;5.00;99.90;;;;;;8428304;28;19954;-65
2021/11/04 20:57:54;;;;;;;;;;;5.00;99.90;;;;;;8427970;28;19912;-65
2021/11/04 21:01:55;;;;;;;;;;;5.00;99.90;;;;;;8427552;28;19920;-65
2021/11/04 21:05:56;;;;;;;;;;;5.00;99.90;;;;;;8427674;28;20427;-65
2021/11/04 21:09:56;;;;;;;;;;;5.10;99.90;;;;;;8427516;28;19907;-65
2021/11/04 21:13:57;;;;;;;;;;;5.10;99.90;;;;;;8427481;28;19912;-65
2021/11/04 21:17:58;;;;;;;;;;;5.10;99.90;;;;;;8409323;28;19904;-65
2021/11/04 21:21:59;;;;;;;;;;;5.10;99.90;;;;;;8408858;28;19912;-65
2021/11/04 21:26:00;;;;;;;;;;;5.00;99.90;;;;;;8410149;28;19964;-65
2021/11/04 21:30:00;;;;;;;;;;;4.90;99.90;;;;;;8439547;22;19924;-63
2021/11/04 21:34:01;;;;;;;;;;;4.90;99.90;;;;;;8393013;28;19908;-64
2021/11/04 21:38:02;;;;;;;;;;;4.80;99.90;;;;;;8393503;28;19951;-63
2021/11/04 21:42:03;;;;;;;;;;;4.80;99.90;;;;;;8361799;28;19919;-64
2021/11/04 21:46:04;;;;;;;;;;;4.80;99.90;;;;;;8343098;28;20482;-63
2021/11/04 21:50:05;;;;;;;;;;;4.80;99.90;;;;;;8360297;28;19912;-63
2021/11/04 21:54:06;;;;;;;;;;;4.80;99.90;;;;;;8360623;28;20329;-64
2021/11/04 21:58:06;;;;;;;;;;;4.80;99.90;;;;;;8359900;28;19909;-63
2021/11/04 22:02:07;;;;;;;;;;;4.80;99.90;;;;;;8342166;28;19908;-63
2021/11/04 22:06:09;;;;;;;;;;;4.80;99.90;;;;;;8360162;28;19909;-64
2021/11/04 22:10:11;;;;;;;;;;;4.90;99.90;;;;;;8344914;28;19913;-63
2021/11/04 22:14:12;;;;;;;;;;;4.90;99.90;;;;;;8337049;28;20007;-63
2021/11/04 22:18:12;;;;;;;;;;;4.90;99.90;;;;;;8356797;28;19970;-63
2021/11/04 22:22:13;;;;;;;;;;;4.90;99.90;;;;;;8362631;28;19916;-63
2021/11/04 22:26:13;;;;;;;;;;;4.90;99.90;;;;;;8362885;28;19952;-63
2021/11/04 22:30:16;;;;;;;;;;;4.80;99.90;;;;;;8329690;28;20269;-63
2021/11/04 22:34:17;;;;;;;;;;;4.80;99.90;;;;;;8329753;28;19920;-63
2021/11/04 22:38:18;;;;;;;;;;;4.60;99.90;;;;;;8329029;28;19905;-63
2021/11/04 22:42:19;;;;;;;;;;;4.70;99.90;;;;;;8328827;28;19912;-63
2021/11/04 22:46:21;;;;;;;;;;;4.50;99.90;;;;;;8329108;28;19905;-63
2021/11/04 22:50:22;;;;;;;;;;;4.60;99.90;;;;;;8328474;28;19905;-63
2021/11/04 22:54:23;;;;;;;;;;;4.60;99.90;;;;;;8328884;28;19912;-63
2021/11/04 22:58:23;;;;;;;;;;;4.60;99.90;;;;;;8328366;28;20354;-63
2021/11/04 23:02:24;;;;;;;;;;;4.60;99.90;;;;;;8328237;28;19913;-64
2021/11/04 23:06:25;;;;;;;;;;;4.60;99.90;;;;;;8328529;28;20377;-63
2021/11/04 23:10:25;;;;;;;;;;;4.60;99.90;;;;;;8310019;28;19905;-64
2021/11/04 23:14:26;;;;;;;;;;;4.60;99.90;;;;;;8310665;28;19905;-63
2021/11/04 23:18:28;;;;;;;;;;;4.60;99.90;;;;;;8327978;28;19905;-63
2021/11/04 23:22:28;;;;;;;;;;;4.60;99.90;;;;;;8327712;28;20293;-64
2021/11/04 23:26:29;;;;;;;;;;;4.70;99.90;;;;;;8327947;28;19912;-63
2021/11/04 23:30:29;;;;;;;;;;;4.70;99.90;;;;;;8327428;28;20008;-63
2021/11/04 23:34:30;;;;;;;;;;;4.90;99.90;;;;;;8327715;28;19983;-64
2021/11/04 23:38:30;;;;;;;;;;;4.90;99.90;;;;;;8327526;28;19909;-63
2021/11/04 23:42:31;;;;;;;;;;;5.00;99.90;;;;;;8327168;28;19905;-63
2021/11/04 23:46:31;;;;;;;;;;;5.00;99.90;;;;;;8327685;28;20355;-63